createdAt,value
2023-03-11T00:03:00.429Z,15.30
2023-03-11T00:08:04.827Z,16.30
2023-03-11T00:18:11.706Z,15.85
2023-03-11T00:23:16.216Z,16.23
2023-03-11T00:28:19.293Z,17.00
2023-03-11T00:33:22.291Z,17.08
2023-03-11T00:38:25.234Z,16.60
2023-03-11T00:43:28.452Z,17.90
2023-03-11T00:48:31.439Z,16.60
2023-03-11T00:53:34.551Z,17.58
2023-03-11T00:58:37.458Z,16.65
2023-03-11T01:03:41.725Z,16.70
2023-03-11T01:08:46.550Z,17.58
2023-03-11T01:13:49.409Z,17.73
2023-03-11T01:18:52.299Z,16.95
2023-03-11T01:23:55.353Z,17.27
2023-03-11T01:28:58.058Z,17.48
2023-03-11T01:34:00.872Z,18.65
2023-03-11T01:39:04.589Z,19.05
2023-03-11T01:44:07.993Z,17.30
2023-03-11T01:49:13.513Z,18.98
2023-03-11T01:54:24.585Z,18.48
2023-03-11T01:59:38.214Z,18.02
2023-03-11T02:04:42.611Z,17.45
2023-03-11T02:09:45.600Z,16.58
2023-03-11T02:14:51.810Z,16.70
2023-03-11T02:20:12.624Z,16.85
2023-03-11T02:25:16.417Z,22.05
2023-03-11T02:30:22.693Z,22.85
2023-03-11T02:35:26.252Z,19.63
2023-03-11T02:40:31.158Z,17.25
2023-03-11T02:45:35.054Z,18.52
2023-03-11T02:50:38.525Z,17.38
2023-03-11T02:55:41.727Z,16.73
2023-03-11T03:00:44.526Z,15.20
2023-03-11T03:05:48.386Z,17.65
2023-03-11T03:10:51.607Z,15.98
2023-03-11T03:15:55.208Z,17.13
2023-03-11T03:20:58.141Z,17.58
2023-03-11T03:26:01.848Z,16.52
2023-03-11T03:31:06.885Z,16.55
2023-03-11T03:36:14.655Z,16.70
2023-03-11T03:41:21.413Z,17.05
2023-03-11T03:46:25.809Z,16.85
2023-03-11T03:51:32.595Z,16.50
2023-03-11T03:56:44.405Z,15.20
2023-03-11T04:01:48.125Z,15.93
2023-03-11T04:06:52.069Z,16.88
2023-03-11T04:11:55.599Z,16.88
2023-03-11T04:16:59.001Z,16.42
2023-03-11T04:22:02.994Z,17.92
2023-03-11T04:27:06.294Z,17.35
2023-03-11T04:32:10.557Z,18.73
2023-03-11T04:37:15.363Z,20.52
2023-03-11T04:42:19.526Z,20.48
2023-03-11T04:47:23.596Z,20.73
2023-03-11T04:52:27.289Z,22.98
2023-03-11T04:57:30.684Z,20.90
2023-03-11T05:02:34.515Z,20.30
2023-03-11T05:07:38.460Z,22.25
2023-03-11T05:12:42.774Z,23.10
2023-03-11T05:17:46.904Z,21.67
2023-03-11T05:22:50.135Z,19.83
2023-03-11T05:27:53.609Z,16.13
2023-03-11T05:32:56.797Z,15.73
2023-03-11T05:38:00.704Z,14.93
2023-03-11T05:43:06.207Z,14.65
2023-03-11T05:48:14.114Z,13.88
2023-03-11T05:53:17.067Z,14.60
2023-03-11T05:58:20.052Z,15.07
2023-03-11T06:03:24.783Z,13.70
2023-03-11T06:08:28.034Z,13.43
2023-03-11T06:13:31.103Z,15.15
2023-03-11T06:18:34.269Z,17.00
2023-03-11T06:23:37.314Z,17.48
2023-03-11T06:28:40.251Z,15.75
2023-03-11T06:33:43.759Z,15.63
2023-03-11T06:38:47.006Z,14.73
2023-03-11T06:43:51.048Z,13.45
2023-03-11T06:48:54.917Z,13.60
2023-03-11T06:53:59.638Z,13.98
2023-03-11T06:59:03.922Z,14.40
2023-03-11T07:04:11.028Z,12.85
2023-03-11T07:09:17.151Z,13.27
2023-03-11T07:14:22.995Z,12.80
2023-03-11T07:19:30.130Z,11.80
2023-03-11T07:24:33.111Z,12.75
2023-03-11T07:29:35.908Z,12.55
2023-03-11T07:34:38.794Z,12.30
2023-03-11T07:39:41.921Z,14.20
2023-03-11T07:44:44.874Z,12.30
2023-03-11T07:49:48.004Z,12.30
2023-03-11T07:54:51.342Z,13.85
2023-03-11T07:59:54.283Z,15.15
2023-03-11T08:04:57.571Z,15.65
2023-03-11T08:10:00.922Z,15.00
2023-03-11T08:15:04.209Z,14.98
2023-03-11T08:20:09.253Z,15.88
2023-03-11T08:25:12.292Z,18.90
2023-03-11T08:30:15.812Z,16.65
2023-03-11T08:35:18.762Z,16.27
2023-03-11T08:40:21.740Z,16.65
2023-03-11T08:45:24.812Z,19.25
2023-03-11T08:50:27.978Z,20.67
2023-03-11T08:55:31.065Z,18.60
2023-03-11T09:00:34.093Z,23.92
2023-03-11T09:05:37.618Z,21.25
2023-03-11T09:10:40.492Z,24.27
2023-03-11T09:15:43.268Z,25.02
2023-03-11T09:20:46.694Z,25.13
2023-03-11T09:25:49.642Z,27.00
2023-03-11T09:30:52.712Z,24.80
2023-03-11T09:35:55.618Z,23.63
2023-03-11T09:41:04.437Z,23.40
2023-03-11T09:46:29.759Z,24.75
2023-03-11T09:51:38.522Z,23.58
2023-03-11T09:56:44.551Z,26.35
2023-03-11T10:01:51.132Z,23.42
2023-03-11T10:06:54.257Z,23.08
2023-03-11T10:12:09.263Z,22.23
2023-03-11T10:17:21.086Z,22.92
2023-03-11T10:22:47.338Z,21.52
2023-03-11T10:27:55.901Z,21.65
2023-03-11T10:33:22.012Z,22.58
2023-03-11T10:38:49.553Z,24.80
2023-03-11T10:44:03.547Z,25.25
2023-03-11T10:49:13.965Z,24.15
2023-03-11T10:54:22.896Z,23.92
2023-03-11T10:59:27.833Z,23.88
2023-03-11T11:04:36.247Z,21.05
2023-03-11T11:09:39.105Z,20.15
2023-03-11T11:14:52.952Z,19.50
2023-03-11T11:19:58.395Z,18.95
2023-03-11T11:25:01.336Z,19.25
2023-03-11T11:30:11.533Z,18.52
2023-03-11T11:35:17.166Z,18.85
2023-03-11T11:40:29.325Z,20.10
2023-03-11T11:45:40.959Z,19.58
2023-03-11T11:50:54.489Z,19.50
2023-03-11T11:55:57.542Z,18.58
2023-03-11T12:01:20.204Z,20.77
2023-03-11T12:06:39.549Z,20.02
2023-03-11T12:11:51.922Z,21.35
2023-03-11T12:17:03.899Z,22.25
2023-03-11T12:22:16.172Z,20.67
2023-03-11T12:27:35.517Z,19.08
2023-03-11T12:32:44.086Z,19.58
2023-03-11T12:37:55.532Z,18.30
2023-03-11T12:42:58.678Z,16.98
2023-03-11T12:48:30.952Z,16.45
2023-03-11T12:53:50.395Z,16.20
2023-03-11T12:59:15.442Z,16.73
2023-03-11T13:04:29.350Z,16.02
2023-03-11T13:09:32.168Z,15.45
2023-03-11T13:14:35.390Z,14.30
2023-03-11T13:19:48.316Z,12.68
2023-03-11T13:24:51.804Z,13.20
2023-03-11T13:30:10.616Z,13.85
2023-03-11T13:35:38.099Z,12.45
2023-03-11T13:40:46.314Z,12.18
2023-03-11T13:45:57.262Z,12.77
2023-03-11T13:51:00.142Z,12.00
2023-03-11T13:56:03.179Z,13.07
2023-03-11T14:01:07.107Z,13.23
2023-03-11T14:06:18.014Z,12.63
2023-03-11T14:11:32.182Z,13.25
2023-03-11T14:16:44.573Z,14.02
2023-03-11T14:21:52.155Z,12.18
2023-03-11T14:26:57.027Z,11.63
2023-03-11T14:32:00.131Z,11.35
2023-03-11T14:37:04.385Z,12.70
2023-03-11T14:47:49.686Z,10.77
2023-03-11T14:53:36.180Z,11.27
2023-03-11T14:59:01.628Z,12.20
2023-03-11T15:04:38.225Z,11.95
2023-03-11T15:09:42.205Z,11.95
2023-03-11T15:14:52.125Z,11.02
2023-03-11T15:19:59.041Z,11.02
2023-03-11T15:25:04.431Z,9.98
2023-03-11T15:30:21.226Z,9.52
2023-03-11T15:35:31.428Z,8.38
2023-03-11T15:45:49.444Z,7.15
2023-03-11T15:50:57.707Z,6.60
2023-03-11T15:56:14.034Z,7.43
2023-03-11T16:01:18.685Z,7.28
2023-03-11T16:06:24.900Z,7.20
2023-03-11T16:11:28.202Z,6.32
2023-03-11T16:16:32.530Z,6.90
2023-03-11T16:21:43.366Z,7.60
2023-03-11T16:26:46.441Z,8.13
2023-03-11T16:31:49.545Z,8.80
2023-03-11T16:36:52.261Z,10.98
2023-03-11T16:41:54.989Z,9.55
2023-03-11T16:46:57.893Z,9.25
2023-03-11T16:52:00.769Z,9.77
2023-03-11T16:57:03.640Z,7.63
2023-03-11T17:02:06.952Z,7.75
2023-03-11T17:07:10.098Z,8.73
2023-03-11T17:12:16.098Z,10.13
2023-03-11T17:17:20.157Z,9.80
2023-03-11T17:22:23.169Z,8.57
2023-03-11T17:27:26.562Z,8.52
2023-03-11T17:32:29.962Z,8.27
2023-03-11T17:37:33.257Z,8.00
2023-03-11T17:42:40.056Z,6.63
2023-03-11T17:47:43.621Z,7.53
2023-03-11T17:52:47.675Z,6.82
2023-03-11T17:57:50.461Z,6.18
2023-03-11T18:02:53.410Z,5.35
2023-03-11T18:07:56.240Z,6.05
2023-03-11T18:12:59.119Z,6.07
2023-03-11T18:18:02.372Z,6.03
2023-03-11T18:23:05.837Z,5.45
2023-03-11T18:28:08.905Z,5.07
2023-03-11T18:33:11.567Z,4.35
2023-03-11T18:38:14.462Z,4.80
2023-03-11T18:43:17.402Z,4.57
2023-03-11T18:48:20.178Z,3.95
2023-03-11T18:53:25.396Z,3.80
2023-03-11T18:58:28.946Z,3.50
2023-03-11T19:03:31.885Z,2.90
2023-03-11T19:08:36.051Z,2.72
2023-03-11T19:13:47.112Z,3.10
2023-03-11T19:18:51.830Z,3.33
2023-03-11T19:23:56.790Z,3.85
2023-03-11T19:28:59.596Z,4.72
2023-03-11T19:34:02.544Z,4.63
2023-03-11T19:39:05.712Z,4.57
2023-03-11T19:44:08.546Z,4.80
2023-03-11T19:49:11.495Z,4.35
2023-03-11T19:54:16.570Z,5.32
2023-03-11T19:59:19.612Z,3.83
2023-03-11T20:04:22.574Z,3.72
2023-03-11T20:09:25.614Z,3.80
2023-03-11T20:14:28.370Z,3.50
2023-03-11T20:19:31.247Z,3.60
2023-03-11T20:24:34.486Z,3.63
2023-03-11T20:29:37.366Z,3.28
2023-03-11T20:34:40.149Z,3.20
2023-03-11T20:39:43.185Z,3.70
2023-03-11T20:44:46.338Z,3.08
2023-03-11T20:49:49.347Z,2.75
2023-03-11T20:54:52.295Z,2.60
2023-03-11T20:59:55.123Z,3.03
2023-03-11T21:04:58.012Z,2.95
2023-03-11T21:10:02.575Z,2.80
2023-03-11T21:15:08.543Z,2.67
2023-03-11T21:20:12.302Z,2.80
2023-03-11T21:25:15.190Z,2.50
2023-03-11T21:30:18.419Z,2.35
2023-03-11T21:35:21.436Z,2.78
2023-03-11T21:40:24.458Z,2.63
2023-03-11T21:45:28.217Z,2.67
2023-03-11T21:50:33.310Z,2.45
2023-03-11T21:55:36.480Z,2.78
2023-03-11T22:00:40.426Z,2.30
2023-03-11T22:05:43.490Z,2.30
2023-03-11T22:10:46.658Z,3.22
2023-03-11T22:15:49.737Z,2.20
2023-03-11T22:20:52.835Z,2.55
2023-03-11T22:25:55.989Z,2.80
2023-03-11T22:30:59.090Z,2.35
2023-03-11T22:36:05.317Z,2.50
2023-03-11T22:41:08.501Z,2.70
2023-03-11T22:46:11.655Z,2.63
2023-03-11T22:51:14.546Z,2.83
2023-03-11T22:56:18.632Z,2.97
2023-03-11T23:01:21.621Z,2.72
2023-03-11T23:06:24.742Z,3.22
2023-03-11T23:11:27.774Z,3.38
2023-03-11T23:16:31.656Z,3.72
2023-03-11T23:21:35.838Z,3.95
2023-03-11T23:26:38.902Z,3.92
2023-03-11T23:31:41.857Z,4.25
2023-03-11T23:36:44.714Z,4.93
2023-03-11T23:41:47.565Z,4.68
2023-03-11T23:46:50.497Z,4.68
2023-03-11T23:51:54.198Z,4.35
2023-03-11T23:56:57.537Z,4.22
